Time;durP1;ratioP1;P1;durP2;ratioP2;P2;SDS_P1;SDS_P2;PMS_P1;PMS_P2;Temp;Humidity;BMP_temperature;BMP_pressure;BME280_temperature;BME280_humidity;BME280_pressure;Samples;Min_cycle;Max_cycle;Signal;HPM_P1;HPM_P2
2021/03/29 00:02:10;;;;;;;11.88;3.67;;;9.10;78.70;;;;;;5051967;28;20033;-70
2021/03/29 00:04:36;;;;;;;9.43;2.53;;;9.10;78.80;;;;;;5051608;28;20052;-70
2021/03/29 00:07:04;;;;;;;8.27;2.83;;;9.20;78.80;;;;;;5052729;28;20056;-70
2021/03/29 00:09:31;;;;;;;8.18;2.47;;;9.20;78.60;;;;;;5053712;28;20029;-69
2021/03/29 00:12:00;;;;;;;8.55;2.78;;;9.10;79.20;;;;;;5053709;28;20053;-70
2021/03/29 00:14:28;;;;;;;9.07;2.83;;;9.20;78.60;;;;;;5053259;28;20025;-70
2021/03/29 00:16:54;;;;;;;10.30;2.95;;;9.10;79.20;;;;;;5063928;28;20063;-70
2021/03/29 00:19:21;;;;;;;7.07;2.88;;;9.20;78.60;;;;;;5073731;28;20679;-70
2021/03/29 00:21:47;;;;;;;8.80;3.03;;;9.30;77.50;;;;;;5065089;28;20545;-70
2021/03/29 00:24:13;;;;;;;8.52;3.63;;;9.20;78.20;;;;;;5053534;28;20041;-69
2021/03/29 00:26:40;;;;;;;10.13;3.78;;;9.20;78.60;;;;;;5056637;28;20045;-70
2021/03/29 00:29:06;;;;;;;9.25;3.15;;;9.10;78.70;;;;;;5052428;28;20112;-69
2021/03/29 00:31:32;;;;;;;6.60;2.47;;;9.00;79.40;;;;;;5050806;28;20542;-70
2021/03/29 00:33:59;;;;;;;4.45;3.05;;;9.00;79.30;;;;;;5064704;28;20044;-70
2021/03/29 00:36:26;;;;;;;7.55;2.53;;;8.90;79.50;;;;;;5039274;28;20423;-70
2021/03/29 00:38:54;;;;;;;7.82;3.20;;;8.90;79.40;;;;;;5060056;28;20731;-70
2021/03/29 00:41:21;;;;;;;6.70;2.80;;;8.90;79.70;;;;;;5044423;28;20064;-70
2021/03/29 00:43:49;;;;;;;8.65;3.60;;;8.80;80.20;;;;;;5061805;28;20090;-69
2021/03/29 00:46:16;;;;;;;10.10;3.25;;;8.90;80.10;;;;;;5058246;28;20033;-69
2021/03/29 00:48:44;;;;;;;6.47;3.33;;;8.90;78.90;;;;;;5052451;28;20071;-70
2021/03/29 00:51:22;;;;;;;10.20;3.88;;;9.00;79.10;;;;;;5051316;28;20029;-69
2021/03/29 00:53:55;;;;;;;11.32;3.78;;;9.00;79.90;;;;;;5052508;28;20041;-70
2021/03/29 00:56:23;;;;;;;6.20;3.03;;;9.10;79.60;;;;;;5051754;28;20043;-69
2021/03/29 00:58:50;;;;;;;9.10;3.25;;;9.10;79.60;;;;;;5055686;28;20040;-70
2021/03/29 01:01:27;;;;;;;4.70;2.72;;;9.20;79.00;;;;;;5051537;28;20057;-70
2021/03/29 01:04:01;;;;;;;11.13;3.92;;;9.30;78.60;;;;;;5034867;28;20041;-69
2021/03/29 01:06:30;;;;;;;5.88;2.80;;;9.20;79.60;;;;;;5058283;28;20032;-69
2021/03/29 01:09:20;;;;;;;6.40;3.15;;;9.30;78.60;;;;;;5063923;28;20051;-70
2021/03/29 01:11:50;;;;;;;6.47;2.60;;;9.30;77.10;;;;;;5056098;28;20053;-70
2021/03/29 01:14:20;;;;;;;10.27;4.07;;;9.30;77.50;;;;;;5051129;28;20318;-70
2021/03/29 01:16:50;;;;;;;6.80;3.03;;;9.20;77.90;;;;;;5057146;28;20478;-69
2021/03/29 01:19:46;;;;;;;8.98;3.20;;;9.20;78.70;;;;;;5052274;28;20033;-69
2021/03/29 01:22:15;;;;;;;8.93;3.35;;;9.20;78.30;;;;;;5058623;28;20044;-70
2021/03/29 01:25:01;;;;;;;6.18;3.15;;;9.20;78.20;;;;;;5054405;28;20472;-70
2021/03/29 01:27:41;;;;;;;9.65;3.00;;;9.20;77.70;;;;;;5053978;28;20036;-69
2021/03/29 01:30:09;;;;;;;8.43;3.55;;;9.30;78.40;;;;;;5049612;28;20039;-69
2021/03/29 01:32:36;;;;;;;9.82;3.40;;;9.40;78.40;;;;;;5051956;28;20060;-69
2021/03/29 01:35:11;;;;;;;7.75;2.78;;;9.30;78.90;;;;;;5063538;28;20075;-70
2021/03/29 01:37:38;;;;;;;9.00;3.13;;;9.30;78.60;;;;;;5050679;28;20040;-70
2021/03/29 01:40:05;;;;;;;5.63;2.78;;;9.30;78.20;;;;;;5051005;28;20041;-70
2021/03/29 01:42:32;;;;;;;8.52;3.33;;;9.40;78.00;;;;;;5049640;28;20040;-69
2021/03/29 01:44:58;;;;;;;8.00;3.20;;;9.40;77.90;;;;;;5054525;28;20124;-70
2021/03/29 01:47:24;;;;;;;7.93;3.33;;;9.40;77.90;;;;;;5050598;28;20537;-70
2021/03/29 01:49:50;;;;;;;7.38;2.97;;;9.40;78.10;;;;;;5051335;28;20067;-70
2021/03/29 01:52:17;;;;;;;7.30;3.17;;;9.50;77.10;;;;;;5066553;28;20068;-69
2021/03/29 01:54:43;;;;;;;6.85;3.22;;;9.50;77.50;;;;;;5055665;28;20159;-69
2021/03/29 01:57:10;;;;;;;7.00;2.80;;;9.50;77.70;;;;;;5051361;28;20067;-69
2021/03/29 01:59:37;;;;;;;4.97;3.22;;;9.40;76.60;;;;;;5053801;28;20483;-70
2021/03/29 02:02:04;;;;;;;7.65;3.05;;;9.50;77.60;;;;;;5049693;28;20486;-69
2021/03/29 02:04:30;;;;;;;8.70;3.13;;;9.50;77.70;;;;;;5051418;28;20037;-70
2021/03/29 02:06:58;;;;;;;8.88;3.10;;;9.50;76.90;;;;;;5050857;28;20037;-69
2021/03/29 02:09:25;;;;;;;10.52;3.40;;;9.50;76.30;;;;;;5051531;28;20393;-70
2021/03/29 02:11:51;;;;;;;6.90;3.40;;;9.60;76.90;;;;;;5051250;28;20045;-70
2021/03/29 02:14:19;;;;;;;6.68;3.50;;;9.60;77.10;;;;;;5051770;28;20274;-70
2021/03/29 02:16:47;;;;;;;11.52;3.47;;;9.50;76.50;;;;;;5051094;28;20045;-70
2021/03/29 02:19:13;;;;;;;6.35;2.80;;;9.50;77.10;;;;;;5050657;28;20090;-71
2021/03/29 02:21:40;;;;;;;8.75;3.35;;;9.50;76.90;;;;;;5051423;28;20069;-70
2021/03/29 02:24:09;;;;;;;7.95;3.67;;;9.40;77.30;;;;;;5061338;28;20040;-71
2021/03/29 02:26:38;;;;;;;8.95;3.55;;;9.40;77.70;;;;;;5059496;28;20724;-70
2021/03/29 02:29:05;;;;;;;8.52;4.35;;;9.50;77.00;;;;;;5049392;28;20045;-70
2021/03/29 02:31:31;;;;;;;7.53;3.50;;;9.40;77.60;;;;;;5063623;28;20492;-69
2021/03/29 02:33:59;;;;;;;7.95;3.08;;;9.40;77.40;;;;;;5056524;28;20064;-70
2021/03/29 02:36:25;;;;;;;10.35;3.92;;;9.40;76.60;;;;;;5049367;28;20502;-70
2021/03/29 02:38:52;;;;;;;5.65;3.40;;;9.50;77.00;;;;;;5051071;28;20102;-69
2021/03/29 02:41:23;;;;;;;8.75;2.90;;;9.50;75.80;;;;;;5052315;28;20037;-70
2021/03/29 02:43:50;;;;;;;8.93;4.15;;;9.40;76.90;;;;;;5050554;28;20037;-69
2021/03/29 02:46:17;;;;;;;8.50;3.40;;;9.40;77.50;;;;;;5050988;28;20040;-69
2021/03/29 02:48:45;;;;;;;9.55;4.10;;;9.50;77.50;;;;;;5056580;28;20048;-69
2021/03/29 02:51:33;;;;;;;11.73;4.22;;;9.40;76.90;;;;;;5034350;28;20079;-70
2021/03/29 02:54:01;;;;;;;9.70;3.63;;;9.30;77.50;;;;;;5063094;28;20069;-70
2021/03/29 02:56:30;;;;;;;10.10;3.60;;;9.40;76.60;;;;;;5054773;28;20360;-70
2021/03/29 02:59:02;;;;;;;7.95;3.60;;;9.40;77.20;;;;;;5070921;28;20055;-70
2021/03/29 03:01:31;;;;;;;8.35;3.65;;;9.40;77.20;;;;;;5060778;28;20037;-70
2021/03/29 03:03:58;;;;;;;10.90;3.63;;;9.50;76.50;;;;;;5054483;28;20037;-70
2021/03/29 03:06:27;;;;;;;10.00;3.35;;;9.50;76.90;;;;;;5037035;28;20116;-70
2021/03/29 03:08:53;;;;;;;10.25;3.60;;;9.50;76.60;;;;;;5056213;28;20037;-70
2021/03/29 03:11:20;;;;;;;6.15;3.72;;;9.60;76.20;;;;;;5056273;28;20115;-69
2021/03/29 03:13:47;;;;;;;9.27;3.53;;;9.60;76.90;;;;;;5053711;28;20041;-70
2021/03/29 03:16:13;;;;;;;10.13;3.95;;;9.60;75.70;;;;;;5065273;28;20071;-70
2021/03/29 03:18:39;;;;;;;8.18;4.05;;;9.60;77.10;;;;;;5066358;28;20394;-70
2021/03/29 03:21:06;;;;;;;9.48;3.80;;;9.60;76.50;;;;;;5053239;28;20037;-69
2021/03/29 03:23:32;;;;;;;8.18;4.30;;;9.70;76.40;;;;;;5059189;28;20496;-70
2021/03/29 03:25:58;;;;;;;8.70;4.25;;;9.70;76.00;;;;;;5062273;28;20116;-70
2021/03/29 03:28:26;;;;;;;10.07;4.90;;;9.80;75.10;;;;;;5052702;28;20049;-70
2021/03/29 03:30:55;;;;;;;12.40;4.22;;;9.70;75.90;;;;;;5057171;28;20053;-70
2021/03/29 03:33:25;;;;;;;8.23;4.18;;;9.70;76.70;;;;;;5055413;28;20982;-70
2021/03/29 03:35:52;;;;;;;7.25;4.13;;;9.60;76.60;;;;;;5063384;28;20047;-70
2021/03/29 03:38:33;;;;;;;9.85;3.88;;;9.60;76.70;;;;;;5054471;28;20094;-70
2021/03/29 03:41:02;;;;;;;10.35;4.68;;;9.60;75.50;;;;;;5057577;28;20796;-70
2021/03/29 03:43:32;;;;;;;8.75;4.32;;;9.60;75.80;;;;;;5053997;28;20123;-70
2021/03/29 03:46:08;;;;;;;11.48;4.93;;;9.50;76.10;;;;;;5054144;28;20076;-69
2021/03/29 03:48:36;;;;;;;12.75;4.20;;;9.50;76.00;;;;;;5064192;28;20114;-70
2021/03/29 03:51:02;;;;;;;8.70;4.75;;;9.40;76.60;;;;;;5050688;28;20060;-70
2021/03/29 03:53:31;;;;;;;8.57;4.07;;;9.30;76.40;;;;;;5059600;28;20037;-70
2021/03/29 03:55:59;;;;;;;8.40;4.00;;;9.20;77.20;;;;;;5070971;28;20116;-70
2021/03/29 03:58:25;;;;;;;9.95;4.40;;;9.30;77.60;;;;;;5070663;28;20157;-69
2021/03/29 04:00:52;;;;;;;9.50;4.18;;;9.30;76.40;;;;;;5054022;28;20494;-70
2021/03/29 04:03:18;;;;;;;8.68;4.63;;;9.20;78.10;;;;;;5057222;28;20037;-70
2021/03/29 04:05:45;;;;;;;11.35;4.63;;;9.20;77.00;;;;;;5051246;28;20543;-70
2021/03/29 04:08:11;;;;;;;7.15;4.63;;;9.30;77.20;;;;;;5064625;28;20124;-70
2021/03/29 04:10:52;;;;;;;8.15;4.25;;;9.20;78.20;;;;;;5051794;28;20079;-69
2021/03/29 04:13:26;;;;;;;13.40;4.88;;;9.10;79.20;;;;;;5051380;28;20044;-70
2021/03/29 04:15:52;;;;;;;8.93;4.25;;;9.20;77.20;;;;;;5058120;28;20045;-70
2021/03/29 04:18:17;;;;;;;11.07;3.75;;;9.20;77.20;;;;;;5054868;28;20075;-70
2021/03/29 04:20:43;;;;;;;7.40;4.43;;;9.20;76.60;;;;;;5059908;28;20037;-70
2021/03/29 04:23:09;;;;;;;10.15;4.68;;;9.20;78.90;;;;;;5053301;28;20458;-70
2021/03/29 04:25:35;;;;;;;9.70;4.45;;;9.10;79.10;;;;;;5056576;28;20040;-70
2021/03/29 04:28:01;;;;;;;11.55;4.72;;;9.10;77.20;;;;;;5070197;28;20041;-70
2021/03/29 04:30:27;;;;;;;8.75;4.32;;;9.10;77.20;;;;;;5055152;28;20033;-70
2021/03/29 04:32:53;;;;;;;9.50;4.28;;;9.10;77.80;;;;;;5068920;28;20037;-70
2021/03/29 04:35:21;;;;;;;9.68;4.75;;;9.20;78.00;;;;;;5052205;28;21102;-70
2021/03/29 04:37:49;;;;;;;10.35;4.70;;;9.20;78.50;;;;;;5057750;28;20123;-70
2021/03/29 04:40:15;;;;;;;11.38;4.47;;;9.20;78.60;;;;;;5057611;28;20040;-69
2021/03/29 04:42:41;;;;;;;11.32;4.40;;;9.20;77.60;;;;;;5052400;28;20063;-69
2021/03/29 04:45:09;;;;;;;12.82;4.70;;;9.20;77.20;;;;;;5052487;28;20526;-70
2021/03/29 04:47:35;;;;;;;8.00;4.13;;;9.30;77.80;;;;;;5053916;28;20049;-70
2021/03/29 04:50:00;;;;;;;11.57;4.53;;;9.30;77.60;;;;;;5052673;28;20915;-69
2021/03/29 04:52:27;;;;;;;7.50;3.83;;;9.20;76.90;;;;;;5052938;28;20033;-69
2021/03/29 04:54:52;;;;;;;10.90;4.32;;;9.30;77.60;;;;;;5051952;28;20033;-70
2021/03/29 04:57:18;;;;;;;9.40;4.10;;;9.40;76.60;;;;;;5066522;28;20048;-70
2021/03/29 04:59:44;;;;;;;7.15;3.70;;;9.40;76.90;;;;;;5070695;28;20040;-70
2021/03/29 05:02:10;;;;;;;12.15;4.53;;;9.40;76.10;;;;;;5052716;28;20041;-70
2021/03/29 05:04:36;;;;;;;9.15;4.00;;;9.40;77.90;;;;;;5050906;28;20068;-70
2021/03/29 05:07:12;;;;;;;12.75;4.25;;;9.40;76.90;;;;;;5064495;28;20119;-70
2021/03/29 05:09:38;;;;;;;14.93;5.30;;;9.40;76.90;;;;;;5052110;28;20033;-69
2021/03/29 05:12:09;;;;;;;9.48;4.80;;;9.40;78.40;;;;;;5062170;28;20052;-69
2021/03/29 05:14:36;;;;;;;9.32;4.00;;;9.30;78.30;;;;;;5060559;28;20037;-69
2021/03/29 05:17:03;;;;;;;10.07;4.78;;;9.20;77.20;;;;;;5051701;28;20056;-69
2021/03/29 05:19:28;;;;;;;9.65;4.03;;;9.20;76.80;;;;;;5050881;28;20054;-69
2021/03/29 05:21:54;;;;;;;12.35;5.18;;;9.20;77.60;;;;;;5064712;28;20040;-70
2021/03/29 05:26:54;;;;;;;8.40;3.85;;;9.20;77.80;;;;;;5042671;28;20055;-66
2021/03/29 05:29:19;;;;;;;10.48;4.85;;;9.20;77.70;;;;;;5052689;28;20143;-67
2021/03/29 05:31:45;;;;;;;11.15;5.28;;;9.20;77.40;;;;;;5061538;28;20537;-66
2021/03/29 05:34:14;;;;;;;9.23;4.50;;;9.20;77.50;;;;;;5043606;28;20046;-66
2021/03/29 05:36:41;;;;;;;11.43;4.57;;;9.20;78.00;;;;;;5039761;28;20047;-67
2021/03/29 05:39:09;;;;;;;10.25;4.47;;;9.20;79.10;;;;;;5051317;28;20108;-66
2021/03/29 05:41:38;;;;;;;6.80;4.43;;;9.10;78.20;;;;;;5050443;28;20060;-67
2021/03/29 05:44:04;;;;;;;10.65;4.18;;;9.10;78.80;;;;;;5050515;28;20107;-66
2021/03/29 05:46:29;;;;;;;11.60;4.45;;;9.10;78.10;;;;;;5050676;28;20371;-67
2021/03/29 05:48:55;;;;;;;9.88;4.60;;;9.10;78.60;;;;;;5032614;28;20043;-67
2021/03/29 05:51:21;;;;;;;10.43;4.63;;;9.10;79.10;;;;;;5048460;28;20041;-66
2021/03/29 05:53:47;;;;;;;11.82;4.38;;;9.20;78.30;;;;;;5054904;28;20036;-67
2021/03/29 05:56:14;;;;;;;9.70;4.13;;;9.20;77.50;;;;;;5070086;28;20119;-67
2021/03/29 05:59:06;;;;;;;8.80;4.50;;;9.20;78.20;;;;;;5065123;28;20495;-66
2021/03/29 06:01:41;;;;;;;9.32;4.32;;;9.20;77.80;;;;;;5047714;28;20108;-67
2021/03/29 06:04:12;;;;;;;10.73;4.47;;;9.30;78.10;;;;;;5058903;28;20040;-67
2021/03/29 06:06:38;;;;;;;10.73;4.97;;;9.40;77.90;;;;;;5051109;28;20080;-66
2021/03/29 06:09:04;;;;;;;8.27;3.67;;;9.60;78.00;;;;;;5043591;28;20473;-66
2021/03/29 06:11:38;;;;;;;10.45;4.38;;;9.70;76.80;;;;;;5049416;28;20040;-67
2021/03/29 06:14:18;;;;;;;9.32;4.10;;;9.80;75.40;;;;;;5050645;28;20029;-67
2021/03/29 06:17:09;;;;;;;10.85;4.10;;;10.00;76.50;;;;;;5041089;28;20049;-67
2021/03/29 06:19:52;;;;;;;7.97;3.58;;;10.40;74.50;;;;;;5049522;28;20037;-66
2021/03/29 06:22:28;;;;;;;9.40;3.85;;;10.90;71.90;;;;;;5051139;28;20037;-67
2021/03/29 06:25:14;;;;;;;7.90;3.67;;;11.20;70.90;;;;;;5049890;28;20045;-66
2021/03/29 06:27:42;;;;;;;8.18;3.25;;;11.70;69.90;;;;;;5060945;28;20100;-67
2021/03/29 06:30:30;;;;;;;11.00;4.05;;;12.00;67.80;;;;;;5031753;28;20068;-67
2021/03/29 06:33:08;;;;;;;11.02;3.55;;;12.40;67.30;;;;;;5048311;28;20060;-67
2021/03/29 06:35:40;;;;;;;8.80;3.67;;;13.30;64.80;;;;;;5050732;28;20194;-67
2021/03/29 06:38:14;;;;;;;9.30;4.35;;;14.20;62.60;;;;;;5048560;28;20041;-67
2021/03/29 06:41:01;;;;;;;9.80;3.53;;;15.00;59.20;;;;;;5048475;28;20794;-67
2021/03/29 06:43:29;;;;;;;8.82;3.97;;;15.80;57.80;;;;;;5031388;28;20038;-67
2021/03/29 06:46:04;;;;;;;11.52;3.95;;;16.30;55.70;;;;;;5050162;28;20167;-67
2021/03/29 06:48:35;;;;;;;9.95;3.70;;;16.70;53.70;;;;;;5050907;28;20040;-67
2021/03/29 06:51:21;;;;;;;7.85;3.65;;;16.90;53.20;;;;;;5050980;28;20037;-67
2021/03/29 06:53:52;;;;;;;10.75;3.78;;;17.30;51.70;;;;;;5050916;28;20049;-67
2021/03/29 06:56:21;;;;;;;9.90;3.38;;;17.50;51.10;;;;;;5050640;28;20135;-66
2021/03/29 06:58:48;;;;;;;7.90;3.00;;;17.60;50.60;;;;;;5050762;28;20063;-67
2021/03/29 07:01:19;;;;;;;8.80;3.78;;;18.10;48.80;;;;;;5050613;28;20131;-67
2021/03/29 07:03:46;;;;;;;7.10;3.10;;;18.20;48.90;;;;;;5050558;28;20114;-66
2021/03/29 07:06:20;;;;;;;12.30;3.60;;;18.60;48.30;;;;;;5049977;28;20041;-67
2021/03/29 07:08:47;;;;;;;7.57;3.05;;;18.60;47.50;;;;;;5050675;28;20057;-66
2021/03/29 07:11:15;;;;;;;9.88;3.30;;;18.50;47.20;;;;;;5050352;28;20036;-68
2021/03/29 07:13:42;;;;;;;7.43;3.42;;;18.40;48.60;;;;;;5034141;28;20048;-67
2021/03/29 07:16:09;;;;;;;7.65;3.33;;;18.60;47.00;;;;;;5051256;28;20045;-67
2021/03/29 07:18:36;;;;;;;8.98;3.78;;;18.70;47.40;;;;;;5047490;28;20397;-67
2021/03/29 07:21:04;;;;;;;8.90;3.42;;;19.00;47.30;;;;;;5032209;28;20254;-67
2021/03/29 07:23:33;;;;;;;11.30;3.95;;;19.10;45.90;;;;;;5041873;28;20492;-67
2021/03/29 07:25:59;;;;;;;9.55;3.90;;;19.20;47.50;;;;;;5061927;28;20053;-67
2021/03/29 07:28:28;;;;;;;7.93;2.75;;;19.40;46.30;;;;;;5070518;28;20040;-67
2021/03/29 07:31:00;;;;;;;9.55;3.90;;;19.30;45.30;;;;;;5064652;28;20078;-67
2021/03/29 07:33:45;;;;;;;;;;;18.80;47.20;;;;;;5049947;28;20029;-67
2021/03/29 07:36:12;;;;;;;10.10;3.70;;;18.90;46.50;;;;;;5047528;28;19921;-67
2021/03/29 07:38:56;;;;;;;6.95;3.30;;;18.90;46.30;;;;;;5036836;28;20041;-68
2021/03/29 07:41:40;;;;;;;11.55;4.03;;;18.00;49.70;;;;;;5048694;28;20494;-67
2021/03/29 07:44:18;;;;;;;8.60;3.05;;;17.80;48.60;;;;;;5041999;28;20075;-70
2021/03/29 07:46:55;;;;;;;9.35;3.10;;;16.90;51.90;;;;;;5051634;28;20041;-69
2021/03/29 07:49:44;;;;;;;4.93;3.03;;;16.00;54.20;;;;;;5049656;28;20044;-69
2021/03/29 07:52:31;;;;;;;7.53;3.58;;;15.40;54.90;;;;;;5043735;28;20116;-69
2021/03/29 07:54:59;;;;;;;6.35;3.03;;;15.00;58.60;;;;;;5051691;28;20086;-70
2021/03/29 07:57:50;;;;;;;10.90;3.25;;;14.70;58.30;;;;;;5059858;28;20037;-70
2021/03/29 08:00:31;;;;;;;6.60;3.37;;;14.50;57.70;;;;;;5048641;28;20033;-70
2021/03/29 08:03:01;;;;;;;8.70;3.80;;;14.20;60.70;;;;;;5066939;28;20358;-70
2021/03/29 08:05:41;;;;;;;7.30;3.35;;;14.00;60.80;;;;;;5034083;28;20044;-70
2021/03/29 08:08:25;;;;;;;7.18;3.30;;;13.90;62.60;;;;;;5028591;28;20040;-70
2021/03/29 08:11:08;;;;;;;9.95;3.25;;;13.80;61.90;;;;;;5053143;28;20468;-69
2021/03/29 08:13:34;;;;;;;13.98;4.35;;;13.80;61.50;;;;;;5052434;28;20037;-70
2021/03/29 08:16:11;;;;;;;10.00;3.47;;;13.70;62.40;;;;;;5053354;28;20135;-70
2021/03/29 08:19:11;;;;;;;10.48;3.50;;;13.70;61.50;;;;;;5053167;28;20041;-69
2021/03/29 08:21:46;;;;;;;7.35;3.80;;;13.60;63.90;;;;;;5053108;28;20036;-70
2021/03/29 08:24:16;;;;;;;8.23;4.10;;;13.70;64.20;;;;;;5052113;28;20530;-70
2021/03/29 08:26:42;;;;;;;9.50;3.50;;;13.60;65.30;;;;;;5013929;28;20060;-70
2021/03/29 08:29:10;;;;;;;10.00;3.95;;;13.70;63.10;;;;;;5013645;28;20387;-70
2021/03/29 08:32:04;;;;;;;6.68;3.75;;;13.70;64.30;;;;;;5013480;28;20601;-70
2021/03/29 08:34:42;;;;;;;11.13;4.47;;;13.70;63.10;;;;;;5013347;28;20038;-70
2021/03/29 08:37:10;;;;;;;11.10;3.78;;;13.60;66.80;;;;;;5016212;28;20065;-71
2021/03/29 08:39:47;;;;;;;10.77;3.83;;;13.70;64.60;;;;;;5012909;28;20047;-70
2021/03/29 08:42:15;;;;;;;9.43;4.00;;;13.80;63.90;;;;;;5012805;28;20096;-70
2021/03/29 08:44:43;;;;;;;6.70;2.92;;;13.80;65.00;;;;;;5012064;28;20034;-70
2021/03/29 08:47:13;;;;;;;7.53;3.83;;;14.00;61.40;;;;;;5012131;28;20045;-69
2021/03/29 08:49:44;;;;;;;8.15;3.72;;;14.00;62.50;;;;;;5011938;28;20046;-69
2021/03/29 08:52:11;;;;;;;9.45;3.83;;;14.00;62.20;;;;;;5009167;28;20080;-69
2021/03/29 08:54:49;;;;;;;11.05;3.80;;;14.00;63.90;;;;;;5005813;28;20077;-69
2021/03/29 08:57:15;;;;;;;11.50;3.85;;;14.10;62.40;;;;;;5008978;28;20104;-69
2021/03/29 08:59:41;;;;;;;8.93;3.78;;;14.20;63.70;;;;;;5011939;28;20491;-69
2021/03/29 09:02:15;;;;;;;10.15;4.55;;;14.30;63.40;;;;;;5011369;28;20049;-69
2021/03/29 09:04:58;;;;;;;15.00;4.88;;;14.20;62.60;;;;;;5010832;28;20064;-69
2021/03/29 09:07:32;;;;;;;7.70;3.50;;;14.30;62.60;;;;;;5010778;28;20060;-70
2021/03/29 09:09:59;;;;;;;9.65;3.78;;;14.40;63.40;;;;;;5012509;28;20046;-69
2021/03/29 09:12:30;;;;;;;10.40;3.80;;;14.50;61.80;;;;;;5005773;28;20037;-69
2021/03/29 09:14:56;;;;;;;12.43;3.25;;;14.60;64.30;;;;;;5012483;28;20034;-70
2021/03/29 09:17:31;;;;;;;10.77;3.70;;;14.70;61.80;;;;;;5011124;28;20768;-70
2021/03/29 09:19:57;;;;;;;6.72;2.95;;;14.80;62.10;;;;;;5010750;28;20050;-70
2021/03/29 09:22:32;;;;;;;7.90;2.95;;;15.00;60.70;;;;;;5015135;28;20095;-70
2021/03/29 09:24:59;;;;;;;8.65;3.70;;;15.10;62.20;;;;;;5020655;28;20045;-70
2021/03/29 09:27:33;;;;;;;11.63;3.55;;;15.10;62.90;;;;;;5051182;28;20037;-70
2021/03/29 09:30:01;;;;;;;10.82;3.67;;;15.30;61.10;;;;;;5046146;28;20043;-67
2021/03/29 09:32:35;;;;;;;7.60;2.60;;;15.30;60.40;;;;;;5051380;28;20489;-67
2021/03/29 09:35:01;;;;;;;10.73;3.60;;;15.30;59.90;;;;;;5051609;28;20041;-66
2021/03/29 09:37:29;;;;;;;10.48;3.67;;;15.40;59.00;;;;;;5052693;28;20161;-66
2021/03/29 09:40:01;;;;;;;10.05;4.05;;;15.30;61.80;;;;;;5049940;28;20053;-67
2021/03/29 09:42:36;;;;;;;7.00;2.40;;;15.20;63.10;;;;;;5046278;28;20122;-67
2021/03/29 09:45:04;;;;;;;9.27;3.15;;;15.40;57.90;;;;;;5046044;28;20060;-66
2021/03/29 09:47:30;;;;;;;10.13;3.35;;;15.50;59.00;;;;;;5049410;28;20036;-66
2021/03/29 09:49:56;;;;;;;11.40;3.95;;;15.50;59.10;;;;;;5040851;28;20037;-66
2021/03/29 09:52:40;;;;;;;9.32;4.20;;;15.50;60.20;;;;;;5037959;28;20040;-66
2021/03/29 09:55:09;;;;;;;8.63;3.85;;;15.50;60.00;;;;;;5050733;28;20498;-67
2021/03/29 09:57:54;;;;;;;8.13;3.08;;;15.50;59.80;;;;;;5018351;28;20106;-66
2021/03/29 10:00:21;;;;;;;10.30;3.90;;;15.40;59.50;;;;;;5053364;28;20442;-67
2021/03/29 10:02:47;;;;;;;13.70;4.22;;;15.40;59.80;;;;;;5049778;28;20063;-67
2021/03/29 10:05:14;;;;;;;10.52;4.10;;;15.40;60.40;;;;;;5049721;28;20623;-67
2021/03/29 10:07:54;;;;;;;12.15;4.43;;;15.50;60.10;;;;;;5051246;28;20090;-67
2021/03/29 10:10:31;;;;;;;7.20;3.17;;;15.40;61.40;;;;;;5051397;28;20033;-67
2021/03/29 10:13:13;;;;;;;10.63;4.35;;;15.50;61.80;;;;;;5051294;28;20089;-66
2021/03/29 10:15:41;;;;;;;12.32;4.40;;;15.50;61.90;;;;;;5050010;28;20044;-66
2021/03/29 10:18:12;;;;;;;9.07;4.35;;;15.40;62.80;;;;;;5051289;28;20551;-66
2021/03/29 10:20:44;;;;;;;12.55;4.15;;;15.40;63.70;;;;;;5048476;28;20064;-67
2021/03/29 10:23:21;;;;;;;12.18;4.30;;;15.30;63.70;;;;;;5031947;28;20526;-67
2021/03/29 10:26:29;;;;;;;13.32;4.70;;;15.50;62.70;;;;;;5032663;28;20075;-67
2021/03/29 10:29:04;;;;;;;11.35;4.65;;;15.50;63.00;;;;;;5051290;28;20466;-67
2021/03/29 10:31:32;;;;;;;10.07;3.38;;;15.60;61.30;;;;;;5050919;28;20037;-67
2021/03/29 10:33:58;;;;;;;16.40;5.85;;;15.70;60.70;;;;;;5050878;28;20041;-67
2021/03/29 10:36:26;;;;;;;6.45;3.15;;;15.60;62.60;;;;;;5050137;28;20045;-67
2021/03/29 10:38:53;;;;;;;13.57;4.50;;;15.60;61.40;;;;;;5052545;28;20041;-66
2021/03/29 10:41:19;;;;;;;14.52;5.15;;;15.60;63.10;;;;;;5047119;28;20033;-66
2021/03/29 10:43:45;;;;;;;10.88;4.25;;;15.70;61.20;;;;;;5049931;28;20402;-67
2021/03/29 10:46:11;;;;;;;15.30;5.18;;;15.70;61.30;;;;;;5032482;28;20132;-67
2021/03/29 10:48:37;;;;;;;19.02;4.80;;;15.80;60.40;;;;;;5050491;28;20117;-67
2021/03/29 10:51:05;;;;;;;14.18;4.78;;;15.90;60.90;;;;;;5049248;28;20108;-67
2021/03/29 10:53:31;;;;;;;13.25;4.20;;;15.90;61.60;;;;;;5044171;28;20109;-67
2021/03/29 10:55:57;;;;;;;11.20;4.20;;;15.90;60.00;;;;;;5049617;28;20041;-67
2021/03/29 10:58:22;;;;;;;14.55;5.68;;;15.90;61.20;;;;;;5070170;28;20063;-67
2021/03/29 11:00:48;;;;;;;13.00;5.03;;;16.00;61.80;;;;;;5050815;28;20502;-67
2021/03/29 11:03:14;;;;;;;13.70;5.03;;;16.00;61.80;;;;;;5043235;28;20036;-67
2021/03/29 11:05:40;;;;;;;10.95;4.40;;;16.10;61.60;;;;;;5044950;28;20064;-66
2021/03/29 11:08:05;;;;;;;17.70;5.50;;;16.20;61.30;;;;;;5048773;28;20751;-66
2021/03/29 11:10:31;;;;;;;10.40;3.63;;;16.20;61.70;;;;;;5050721;28;20397;-66
2021/03/29 11:12:56;;;;;;;13.10;4.82;;;16.20;60.00;;;;;;5050732;28;20045;-66
2021/03/29 11:15:22;;;;;;;19.60;5.20;;;16.30;60.80;;;;;;5061683;28;20478;-66
2021/03/29 11:17:48;;;;;;;17.83;4.78;;;16.40;59.50;;;;;;5054632;28;20124;-67
2021/03/29 11:20:14;;;;;;;14.38;4.25;;;16.50;58.60;;;;;;5051002;28;20440;-67
2021/03/29 11:22:40;;;;;;;14.48;4.70;;;16.70;57.10;;;;;;5050397;28;20040;-67
2021/03/29 11:25:07;;;;;;;17.17;5.38;;;16.60;61.20;;;;;;5054839;28;20055;-67
2021/03/29 11:27:33;;;;;;;13.85;4.45;;;16.70;59.20;;;;;;5060225;28;20048;-66
2021/03/29 11:29:58;;;;;;;12.05;4.47;;;16.60;59.80;;;;;;5057204;28;20033;-67
2021/03/29 11:32:25;;;;;;;10.73;4.35;;;16.70;59.50;;;;;;5054787;28;20120;-66
2021/03/29 11:34:51;;;;;;;10.70;4.25;;;16.70;59.60;;;;;;5051327;28;20058;-66
2021/03/29 11:37:18;;;;;;;15.02;4.93;;;16.60;60.00;;;;;;5059533;28;20087;-66
2021/03/29 11:39:44;;;;;;;12.93;4.88;;;16.40;59.60;;;;;;5059175;28;20037;-67
2021/03/29 11:42:09;;;;;;;12.52;5.32;;;16.40;58.80;;;;;;5057800;28;20159;-66
2021/03/29 11:44:35;;;;;;;14.20;4.95;;;16.30;59.40;;;;;;5062586;28;20405;-67
2021/03/29 11:47:01;;;;;;;11.98;4.20;;;16.30;61.80;;;;;;5061540;28;20047;-66
2021/03/29 11:49:26;;;;;;;8.85;3.67;;;16.30;59.30;;;;;;5052215;28;20055;-67
2021/03/29 11:51:52;;;;;;;6.80;3.75;;;16.40;58.90;;;;;;5035588;28;20599;-66
2021/03/29 11:54:18;;;;;;;11.10;4.03;;;16.40;59.50;;;;;;5059865;28;20037;-66
2021/03/29 11:56:43;;;;;;;9.75;3.85;;;16.50;60.30;;;;;;5052324;28;20169;-67
2021/03/29 11:59:09;;;;;;;9.57;3.78;;;16.50;59.00;;;;;;5053424;28;20081;-66
2021/03/29 12:04:06;;;;;;;12.57;4.13;;;16.40;60.00;;;;;;5052765;28;20033;-67
2021/03/29 12:06:50;;;;;;;12.80;4.20;;;16.40;59.30;;;;;;5051317;28;20045;-66
2021/03/29 12:11:49;;;;;;;10.80;3.60;;;16.40;60.10;;;;;;5045074;28;20041;-67
2021/03/29 12:12:06;;;;;;;12.73;4.03;;;16.40;60.00;;;;;;5044342;28;20049;-66
2021/03/29 12:14:36;;;;;;;8.77;3.63;;;16.50;59.00;;;;;;5053782;28;20044;-66
2021/03/29 12:17:05;;;;;;;15.25;4.55;;;16.50;59.40;;;;;;5034987;28;20151;-66
2021/03/29 12:19:31;;;;;;;12.88;3.83;;;16.60;59.30;;;;;;5053055;28;20041;-66
2021/03/29 12:22:00;;;;;;;10.48;4.00;;;16.70;61.50;;;;;;5053195;28;20052;-67
2021/03/29 12:24:34;;;;;;;12.02;3.92;;;16.70;59.50;;;;;;5053368;28;20083;-67
2021/03/29 12:27:01;;;;;;;14.93;4.25;;;16.70;60.80;;;;;;5052281;28;20048;-66
2021/03/29 12:29:37;;;;;;;8.60;3.75;;;16.70;59.80;;;;;;5053395;28;20049;-67
2021/03/29 12:32:05;;;;;;;10.68;4.05;;;16.80;59.40;;;;;;5052695;28;20064;-67
2021/03/29 12:34:31;;;;;;;9.57;4.20;;;16.80;57.70;;;;;;5053271;28;20041;-67
2021/03/29 12:36:57;;;;;;;12.05;4.10;;;16.90;59.40;;;;;;5051796;28;20063;-66
2021/03/29 12:41:58;;;;;;;11.60;4.35;;;16.90;61.40;;;;;;5052541;28;20377;-67
2021/03/29 12:44:25;;;;;;;10.45;4.85;;;17.10;58.40;;;;;;5053020;28;20159;-67
2021/03/29 12:47:04;;;;;;;16.10;4.97;;;17.10;58.90;;;;;;5052505;28;20080;-68
2021/03/29 12:49:30;;;;;;;11.20;4.57;;;17.20;59.10;;;;;;5034963;28;20496;-68
2021/03/29 12:51:58;;;;;;;11.20;5.10;;;17.20;57.50;;;;;;5052789;28;20045;-68
2021/03/29 12:54:29;;;;;;;11.05;3.83;;;17.20;58.60;;;;;;5044882;28;20033;-68
2021/03/29 12:56:56;;;;;;;12.13;5.10;;;17.20;56.80;;;;;;5057311;28;20041;-68
2021/03/29 12:59:24;;;;;;;9.77;4.00;;;17.20;57.80;;;;;;5034989;28;20087;-67
2021/03/29 13:01:50;;;;;;;9.90;3.70;;;17.20;57.00;;;;;;5031146;28;20037;-68
2021/03/29 13:04:23;;;;;;;12.38;4.60;;;17.30;56.70;;;;;;5050117;28;20134;-68
2021/03/29 13:10:01;;;;;;;12.48;5.38;;;17.20;58.90;;;;;;5062979;28;20417;-68
2021/03/29 13:12:28;;;;;;;11.25;4.65;;;17.30;56.90;;;;;;5053220;28;20093;-67
2021/03/29 13:15:12;;;;;;;11.90;4.93;;;17.20;58.60;;;;;;5052536;28;20049;-68